x

Destruction Island, Wa (desw1) Weather Station

3:00 - Mon 2nd Mar 2015 All times are PST. -8 hours from GMT.

  • Wind
    10mph
  • Air Temp 40°f
  • Sea Pressure 1015.3mb
  • Destruction Island, Wa
  • Destruction Island, Wa

More Historic Weather Station data

Upgrade to MSW Pro to gain access to the past 30 days of data for over 8000 Wavebouys and Weather Stations around the globe.

Join Pro

Comparision Forecast

View Surf forecast
   
lun. 03/02 3:00 10
mph
1015.3mb 40f
2:00 10 13 mph 1015.2mb 41f
1:00 16 18 mph 1015.1mb 42f
12:00 14 16 mph 1015mb 42f
dim. 03/01 11:00 10 11 mph 1015.5mb 43f
10:00 10 13 mph 1015.8mb 44f
9:00 10 11 mph 1015.9mb 44f
8:00 10 13 mph 1016.3mb 44f
7:00 5 6 mph 1016.6mb 44f
6:00 13 16 mph 1017mb 45f
5:00 7 8 mph 1017.6mb 47f
4:00 2 3 mph 1018.4mb 47f
3:00 3
mph
1019.1mb 48f
2:00 2 3 mph 1019.9mb 48f
1:00 5 6 mph 1021mb 47f
12:00 3 5 mph 1021.9mb 47f
11:00 8 9 mph 1022.4mb 46f
10:00 8
mph
1022.8mb 46f
9:00 1 2 mph 1023mb 46f
8:00 5 6 mph 1023.1mb 43f
7:00 3 5 mph 1023.3mb 41f
6:00 6
mph
1023.2mb 42f
5:00 7 8 mph 1023.4mb 42f
4:00 13 14 mph 1023.4mb 41f
3:00 8
mph
1023.9mb 42f
2:00 3 5 mph 1024.4mb 43f
1:00 5 6 mph 1024.2mb 43f
12:00 5 6 mph 1023.8mb 44f
sam. 02/28 11:00 7 8 mph 1023.5mb 45f
10:00 7 8 mph 1023.7mb 46f
9:00 10
mph
1023mb 46f
8:00 9 10 mph 1022.7mb 49f
7:00 11 13 mph 1022.5mb 52f
6:00  -  mph 1022mb 52f
5:00 3 5 mph 1021.7mb 53f
4:00 9 10 mph 1021.5mb 53f
3:00 17 18 mph 1021.5mb 52f
2:00 15 16 mph 1021.5mb 53f
1:00 3 5 mph 1021.9mb 55f
12:00 9 10 mph 1022mb 54f
11:00  -  mph 1022mb 53f
10:00 5 6 mph 1021.7mb 50f
9:00 1 2 mph 1021.1mb 49f
8:00 16 18 mph 1019.6mb 47f
7:00 17 18 mph 1019.1mb 48f
6:00 20 23 mph 1018.6mb 48f
5:00 21 22 mph 1018.2mb 48f
4:00 16 18 mph 1017mb 48f
3:00 28 31 mph 1015.9mb 48f
2:00 28 33 mph 1015.5mb 47f
1:00 28 32 mph 1014.8mb 48f
12:00 30 37 mph 1014.2mb 49f
ven. 02/27 11:00 30 33 mph 1013.5mb 50f
10:00 7 8 mph 1013mb 48f
9:00 16 21 mph 1011.7mb 49f
8:00 7 8 mph 1010.9mb 49f
7:00  -  1 mph 1010mb 49f
6:00 17 20 mph 1008.6mb 50f
5:00 15 16 mph 1007.9mb 50f
4:00 13 15 mph 1007.6mb 50f
3:00 14 15 mph 1007.1mb 50f
2:00 7 8 mph 1007mb 50f
1:00 11 13 mph 1007mb 48f
12:00 10 11 mph 1007.4mb 47f
11:00 6 7 mph 1007.3mb 48f
10:00 2
mph
1006.8mb 48f
9:00 5 6 mph 1006.5mb 48f
8:00 3 5 mph 1005.9mb 47f
7:00 2
mph
1005.6mb 47f
6:00 6 7 mph 1005.9mb 47f
5:00 7
mph
1006mb 47f
4:00 3 5 mph 1006mb 47f
3:00 8
mph
1006.4mb 47f
2:00 7 8 mph 1007mb 46f
1:00 6 7 mph 1007.3mb 48f
12:00 15 16 mph 1007.8mb 49f
jeu. 02/26 11:00 14 16 mph 1008.6mb 49f
10:00 21 23 mph 1009mb 49f
9:00 22 24 mph 1009.8mb 49f
8:00 21 22 mph 1011.1mb 49f
7:00 18 21 mph 1012.2mb 49f
6:00 16 17 mph 1013.5mb 49f
5:00 14 16 mph 1014.8mb 49f
4:00 11 14 mph 1015.7mb 49f
3:00 15 16 mph 1016.6mb 49f
2:00 8 10 mph 1017.5mb 49f
1:00 13 14 mph 1018.3mb 49f